createdAt,value
2022-10-17T00:00:11.944Z,9.443763
2022-10-17T00:01:11.945Z,9.443724
2022-10-17T00:02:11.945Z,9.443736
2022-10-17T00:03:11.920Z,9.443697
2022-10-17T00:04:11.922Z,9.443684
2022-10-17T00:05:11.908Z,9.443675
2022-10-17T00:06:11.906Z,9.443675
2022-10-17T00:07:11.913Z,9.443691
2022-10-17T00:08:11.898Z,9.443631
2022-10-17T00:09:11.877Z,9.443691
2022-10-17T00:10:11.903Z,9.443722
2022-10-17T00:11:11.862Z,9.443714
2022-10-17T00:12:11.859Z,9.443732
2022-10-17T00:13:11.882Z,9.443733
2022-10-17T00:14:11.846Z,9.443732
2022-10-17T00:15:11.866Z,9.443715
2022-10-17T00:16:11.824Z,9.443729
2022-10-17T00:17:11.857Z,9.443774
2022-10-17T00:18:11.847Z,9.443767
2022-10-17T00:19:11.821Z,9.443714
2022-10-17T00:20:11.805Z,9.443766
2022-10-17T00:21:11.819Z,9.443707
2022-10-17T00:22:11.788Z,9.443765
2022-10-17T00:23:11.779Z,9.443783
2022-10-17T00:24:11.818Z,9.443814
2022-10-17T00:25:11.789Z,9.443791
2022-10-17T00:26:11.778Z,9.443769
2022-10-17T00:27:11.763Z,9.443751
2022-10-17T00:28:11.763Z,9.443766
2022-10-17T00:29:11.758Z,9.443728
2022-10-17T00:30:11.743Z,9.443710
2022-10-17T00:31:11.737Z,9.443750
2022-10-17T00:32:11.762Z,9.443715
2022-10-17T00:33:11.710Z,9.443720
2022-10-17T00:34:11.748Z,9.443720
2022-10-17T00:35:11.702Z,9.443692
2022-10-17T00:36:11.721Z,9.443774
2022-10-17T00:37:11.697Z,9.443721
2022-10-17T00:38:11.707Z,9.443774
2022-10-17T00:39:11.689Z,9.443752
2022-10-17T00:40:11.669Z,9.443840
2022-10-17T00:41:11.700Z,9.443765
2022-10-17T00:42:11.662Z,9.443634
2022-10-17T00:43:12.466Z,9.443696
2022-10-17T00:44:11.674Z,9.443699
2022-10-17T00:45:11.665Z,9.443764
2022-10-17T00:46:11.634Z,9.443808
2022-10-17T00:47:11.621Z,9.443797
2022-10-17T00:48:11.658Z,9.443850
2022-10-17T00:49:11.658Z,9.443834
2022-10-17T00:50:11.630Z,9.443829
2022-10-17T00:51:11.606Z,9.443723
2022-10-17T00:52:12.063Z,9.443633
2022-10-17T00:53:11.603Z,9.443604
2022-10-17T00:54:11.598Z,9.443523
2022-10-17T00:55:11.596Z,9.443626
2022-10-17T00:56:11.591Z,9.443688
2022-10-17T00:57:11.603Z,9.443663
2022-10-17T00:58:11.585Z,9.443727
2022-10-17T00:59:11.572Z,9.443730
2022-10-17T01:00:11.551Z,9.443697
2022-10-17T01:01:11.564Z,9.443709
2022-10-17T01:02:11.551Z,9.443759
2022-10-17T01:03:11.534Z,9.443760
2022-10-17T01:04:11.538Z,9.443711
2022-10-17T01:05:11.529Z,9.443666
2022-10-17T01:06:11.498Z,9.443668
2022-10-17T01:07:11.519Z,9.443721
2022-10-17T01:08:11.497Z,9.443607
2022-10-17T01:09:11.501Z,9.443682
2022-10-17T01:10:11.552Z,9.443683
2022-10-17T01:11:11.481Z,9.443660
2022-10-17T01:12:11.493Z,9.443631
2022-10-17T01:13:11.478Z,9.443626
2022-10-17T01:14:11.466Z,9.443540
2022-10-17T01:15:11.450Z,9.443645
2022-10-17T01:16:11.462Z,9.443727
2022-10-17T01:17:11.458Z,9.443674
2022-10-17T01:18:11.434Z,9.443606
2022-10-17T01:19:11.493Z,9.443636
2022-10-17T01:20:12.018Z,9.443698
2022-10-17T01:21:11.418Z,9.443713
2022-10-17T01:22:11.558Z,9.443746
2022-10-17T01:23:11.401Z,9.443715
2022-10-17T01:24:11.410Z,9.443677
2022-10-17T01:25:11.450Z,9.443599
2022-10-17T01:26:11.398Z,9.443570
2022-10-17T01:27:11.393Z,9.443702
2022-10-17T01:28:11.362Z,9.443687
2022-10-17T01:29:11.370Z,9.443754
2022-10-17T01:30:11.350Z,9.443742
2022-10-17T01:31:11.350Z,9.443681
2022-10-17T01:32:11.359Z,9.443644
2022-10-17T01:33:11.333Z,9.443669
2022-10-17T01:34:11.321Z,9.443520
2022-10-17T01:35:11.345Z,9.443523
2022-10-17T01:36:11.318Z,9.443638
2022-10-17T01:37:11.307Z,9.443601
2022-10-17T01:38:11.330Z,9.443541
2022-10-17T01:39:11.298Z,9.443773
2022-10-17T01:40:11.301Z,9.443705
2022-10-17T01:41:11.288Z,9.443647
2022-10-17T01:42:11.284Z,9.443727
2022-10-17T01:43:11.270Z,9.443788
2022-10-17T01:44:11.278Z,9.443625
2022-10-17T01:45:11.261Z,9.443602
2022-10-17T01:46:11.248Z,9.443558
2022-10-17T01:47:11.248Z,9.443643
2022-10-17T01:48:11.242Z,9.443610
2022-10-17T01:49:11.241Z,9.443580
2022-10-17T01:50:11.225Z,9.443555
2022-10-17T01:51:11.226Z,9.443608
2022-10-17T01:52:11.241Z,9.443637
2022-10-17T01:53:11.214Z,9.443647
2022-10-17T01:54:11.246Z,9.443664
2022-10-17T01:55:11.214Z,9.443653
2022-10-17T01:56:11.196Z,9.443620
2022-10-17T01:57:11.177Z,9.443622
2022-10-17T01:58:11.194Z,9.443587
2022-10-17T01:59:11.173Z,9.443570
2022-10-17T02:00:11.160Z,9.443607
2022-10-17T02:01:11.220Z,9.443620
2022-10-17T02:02:11.142Z,9.443670
2022-10-17T02:03:12.135Z,9.443751
2022-10-17T02:04:11.122Z,9.443786
2022-10-17T02:05:11.127Z,9.443732
2022-10-17T02:06:11.121Z,9.443703
2022-10-17T02:07:11.109Z,9.443750
2022-10-17T02:08:11.091Z,9.443745
2022-10-17T02:09:11.089Z,9.443722
2022-10-17T02:10:11.093Z,9.443701
2022-10-17T02:11:11.105Z,9.443739
2022-10-17T02:12:11.073Z,9.443685
2022-10-17T02:13:11.061Z,9.443610
2022-10-17T02:15:11.053Z,9.443665
2022-10-17T02:16:11.045Z,9.443696
2022-10-17T02:17:11.045Z,9.443728
2022-10-17T02:18:11.020Z,9.443762
2022-10-17T02:19:11.029Z,9.443752
2022-10-17T02:20:11.017Z,9.443762
2022-10-17T02:21:11.037Z,9.443760
2022-10-17T02:22:11.017Z,9.443742
2022-10-17T02:23:11.052Z,9.443747
2022-10-17T02:24:10.980Z,9.443746
2022-10-17T02:25:10.989Z,9.443760
2022-10-17T02:26:11.003Z,9.443746
2022-10-17T02:27:10.966Z,9.443742
2022-10-17T02:28:10.956Z,9.443734
2022-10-17T02:29:10.965Z,9.443724
2022-10-17T02:30:10.947Z,9.443776
2022-10-17T02:31:10.945Z,9.443769
2022-10-17T02:32:10.998Z,9.443783
2022-10-17T02:33:11.945Z,9.443796
2022-10-17T02:34:10.933Z,9.443765
2022-10-17T02:35:10.917Z,9.443750
2022-10-17T02:36:10.913Z,9.443763
2022-10-17T02:37:10.909Z,9.443761
2022-10-17T02:38:10.911Z,9.443791
2022-10-17T02:39:10.876Z,9.443808
2022-10-17T02:40:10.889Z,9.443748
2022-10-17T02:41:10.874Z,9.443782
2022-10-17T02:42:10.880Z,9.443762
2022-10-17T02:43:10.868Z,9.443801
2022-10-17T02:44:10.855Z,9.443803
2022-10-17T02:45:10.841Z,9.443813
2022-10-17T02:46:10.843Z,9.443771
2022-10-17T02:47:11.856Z,9.443737
2022-10-17T02:48:10.834Z,9.443757
2022-10-17T02:49:10.825Z,9.443813
2022-10-17T02:50:10.809Z,9.443817
2022-10-17T02:51:10.802Z,9.443787
2022-10-17T02:52:10.806Z,9.443813
2022-10-17T02:53:10.777Z,9.443779
2022-10-17T02:54:10.781Z,9.443758
2022-10-17T02:55:10.777Z,9.443760
2022-10-17T02:56:10.800Z,9.443826
2022-10-17T02:57:10.773Z,9.443818
2022-10-17T02:58:10.773Z,9.443781
2022-10-17T02:59:10.748Z,9.443787
2022-10-17T03:00:10.737Z,9.443753
2022-10-17T03:01:10.778Z,9.443763
2022-10-17T03:02:10.759Z,9.443763
2022-10-17T03:03:10.749Z,9.443687
2022-10-17T03:04:10.715Z,9.443761
2022-10-17T03:05:10.706Z,9.443707
2022-10-17T03:06:10.696Z,9.443767
2022-10-17T03:07:10.717Z,9.443753
2022-10-17T03:08:10.696Z,9.443755
2022-10-17T03:09:10.664Z,9.443724
2022-10-17T03:10:10.678Z,9.443728
2022-10-17T03:11:10.701Z,9.443751
2022-10-17T03:12:10.668Z,9.443741
2022-10-17T03:13:10.670Z,9.443764
2022-10-17T03:14:10.646Z,9.443754
2022-10-17T03:15:10.676Z,9.443799
2022-10-17T03:16:10.635Z,9.443813
2022-10-17T03:17:10.646Z,9.443782
2022-10-17T03:18:10.621Z,9.443797
2022-10-17T03:19:10.616Z,9.443789
2022-10-17T03:20:10.620Z,9.443791
2022-10-17T03:21:10.588Z,9.443750
2022-10-17T03:22:10.617Z,9.443740
2022-10-17T03:23:10.585Z,9.443769
2022-10-17T03:24:10.574Z,9.443824
2022-10-17T03:25:38.024Z,9.443819
2022-10-17T03:26:10.557Z,9.443815
2022-10-17T03:27:10.556Z,9.443788
2022-10-17T03:28:10.573Z,9.443718
2022-10-17T03:29:10.642Z,9.443755
2022-10-17T03:30:10.545Z,9.443733
2022-10-17T03:31:10.549Z,9.443787
2022-10-17T03:32:10.521Z,9.443770
2022-10-17T03:33:10.525Z,9.443785
2022-10-17T03:34:10.524Z,9.443796
2022-10-17T03:35:14.796Z,9.443713
2022-10-17T03:36:11.494Z,9.443747
2022-10-17T03:37:10.502Z,9.443712
2022-10-17T03:38:10.490Z,9.443747
2022-10-17T03:39:10.477Z,9.443748
2022-10-17T03:40:10.474Z,9.443648
2022-10-17T03:41:10.484Z,9.443776
2022-10-17T03:42:10.454Z,9.443871
2022-10-17T03:43:10.454Z,9.443766
2022-10-17T03:44:10.442Z,9.443727
2022-10-17T03:45:10.438Z,9.443714
2022-10-17T03:46:10.471Z,9.443707
2022-10-17T03:47:13.339Z,9.443666
2022-10-17T03:48:10.409Z,9.443593
2022-10-17T03:49:10.426Z,9.443696
2022-10-17T03:50:10.398Z,9.443759
2022-10-17T03:51:10.402Z,9.443826
2022-10-17T03:52:10.387Z,9.443756
2022-10-17T03:53:10.394Z,9.443680
2022-10-17T03:54:10.409Z,9.443820
2022-10-17T03:55:10.384Z,9.443807
2022-10-17T03:56:10.360Z,9.443788
2022-10-17T03:57:10.361Z,9.443796
2022-10-17T03:58:10.382Z,9.443817
2022-10-17T03:59:10.357Z,9.443798
2022-10-17T04:00:10.356Z,9.443732
2022-10-17T04:01:10.386Z,9.443774
2022-10-17T04:02:11.037Z,9.443714
2022-10-17T04:03:16.263Z,9.443849
2022-10-17T04:04:12.329Z,9.443810
2022-10-17T04:05:11.032Z,9.443777
2022-10-17T04:06:10.293Z,9.443796
2022-10-17T04:07:10.292Z,9.443774
2022-10-17T04:08:10.293Z,9.443773
2022-10-17T04:09:10.297Z,9.443771
2022-10-17T04:10:10.290Z,9.443774
2022-10-17T04:11:10.268Z,9.443803
2022-10-17T04:12:10.292Z,9.443802
2022-10-17T04:13:10.252Z,9.443754
2022-10-17T04:14:10.256Z,9.443720
2022-10-17T04:15:10.277Z,9.443702
2022-10-17T04:16:10.250Z,9.443701
2022-10-17T04:17:10.236Z,9.443695
2022-10-17T04:18:10.222Z,9.443779
2022-10-17T04:19:10.212Z,9.443729
2022-10-17T04:20:10.219Z,9.443760
2022-10-17T04:21:10.212Z,9.443806
2022-10-17T04:22:10.208Z,9.443738
2022-10-17T04:23:10.192Z,9.443683
2022-10-17T04:24:10.180Z,9.443694
2022-10-17T04:25:10.169Z,9.443740
2022-10-17T04:26:10.193Z,9.443765
2022-10-17T04:27:10.161Z,9.443730
2022-10-17T04:28:10.165Z,9.443734
2022-10-17T04:29:10.141Z,9.443630
2022-10-17T04:30:10.133Z,9.443679
2022-10-17T04:31:10.134Z,9.443704
2022-10-17T04:32:10.140Z,9.443696
2022-10-17T04:33:10.121Z,9.443771
2022-10-17T04:34:10.116Z,9.443666
2022-10-17T04:35:11.000Z,9.443754
2022-10-17T04:36:10.096Z,9.443851
2022-10-17T04:37:10.100Z,9.443848
2022-10-17T04:38:10.096Z,9.443752
2022-10-17T04:39:10.138Z,9.443674
2022-10-17T04:40:10.070Z,9.443639
2022-10-17T04:41:10.087Z,9.443703
2022-10-17T04:42:10.073Z,9.443707
2022-10-17T04:43:10.053Z,9.443698
2022-10-17T04:44:10.049Z,9.443770
2022-10-17T04:45:10.060Z,9.443683
2022-10-17T04:46:10.030Z,9.443741
2022-10-17T04:47:10.052Z,9.443645
2022-10-17T04:48:10.025Z,9.443641
2022-10-17T04:49:10.019Z,9.443692
2022-10-17T04:50:10.029Z,9.443660
2022-10-17T04:51:10.026Z,9.443633
2022-10-17T04:52:10.005Z,9.443548
2022-10-17T04:53:10.012Z,9.443686
2022-10-17T04:54:10.019Z,9.443675
2022-10-17T04:55:10.055Z,9.443681
2022-10-17T04:56:10.535Z,9.443644
2022-10-17T04:57:09.944Z,9.443687
2022-10-17T04:58:10.083Z,9.443712
2022-10-17T04:59:09.947Z,9.443767
2022-10-17T05:01:10.980Z,9.443732
2022-10-17T05:02:09.916Z,9.443761
2022-10-17T05:03:09.928Z,9.443733
2022-10-17T05:04:09.924Z,9.443743
2022-10-17T05:05:09.901Z,9.443688
2022-10-17T05:06:09.896Z,9.443701
2022-10-17T05:07:09.903Z,9.443644
2022-10-17T05:08:09.926Z,9.443568
2022-10-17T05:09:10.865Z,9.443751
2022-10-17T05:10:09.863Z,9.443726
2022-10-17T05:11:09.853Z,9.443730
2022-10-17T05:12:10.494Z,9.443753
2022-10-17T05:13:09.849Z,9.443772
2022-10-17T05:14:09.863Z,9.443896
2022-10-17T05:15:09.816Z,9.443704
2022-10-17T05:16:10.815Z,9.443748
2022-10-17T05:17:09.835Z,9.443787
2022-10-17T05:18:09.824Z,9.443758
2022-10-17T05:19:09.842Z,9.443780
2022-10-17T05:20:09.792Z,9.443871
2022-10-17T05:21:09.786Z,9.443880
2022-10-17T05:22:09.782Z,9.443898
2022-10-17T05:23:09.763Z,9.443673
2022-10-17T05:24:09.771Z,9.443725
2022-10-17T05:25:09.786Z,9.443843
2022-10-17T05:26:09.754Z,9.443818
2022-10-17T05:27:09.750Z,9.443811
2022-10-17T05:28:09.730Z,9.443820
2022-10-17T05:29:09.811Z,9.443797
2022-10-17T05:30:09.790Z,9.443836
2022-10-17T05:31:09.731Z,9.443921
2022-10-17T05:32:09.713Z,9.443949
2022-10-17T05:33:09.717Z,9.443875
2022-10-17T05:34:11.657Z,9.443829
2022-10-17T05:35:09.707Z,9.443782
2022-10-17T05:36:09.697Z,9.443741
2022-10-17T05:37:09.681Z,9.443710
2022-10-17T05:38:09.673Z,9.443748
2022-10-17T05:39:09.692Z,9.443735
2022-10-17T05:40:09.678Z,9.443641
2022-10-17T05:41:09.648Z,9.443666
2022-10-17T05:42:09.672Z,9.443676
2022-10-17T05:43:09.631Z,9.443657
2022-10-17T05:44:09.639Z,9.443750
2022-10-17T05:45:09.649Z,9.443760
2022-10-17T05:46:09.643Z,9.443723
2022-10-17T05:47:09.639Z,9.443793
2022-10-17T05:48:09.607Z,9.443819
2022-10-17T05:49:19.436Z,9.443855
2022-10-17T05:50:11.605Z,9.443710
2022-10-17T05:51:09.650Z,9.443743
2022-10-17T05:52:09.596Z,9.443721
2022-10-17T05:53:09.570Z,9.443742
2022-10-17T05:54:10.593Z,9.443770
2022-10-17T05:55:09.655Z,9.443750
2022-10-17T05:56:09.708Z,9.443768
2022-10-17T05:57:09.580Z,9.443758
2022-10-17T05:58:14.252Z,9.443745
2022-10-17T05:59:10.536Z,9.443747
2022-10-17T06:00:09.595Z,9.443754
2022-10-17T06:01:12.112Z,9.443735
2022-10-17T06:02:09.607Z,9.443735
2022-10-17T06:03:09.550Z,9.443732
2022-10-17T06:04:09.495Z,9.443726
2022-10-17T06:05:09.499Z,9.443742
2022-10-17T06:06:09.538Z,9.443764
2022-10-17T06:07:09.482Z,9.443729
2022-10-17T06:08:09.505Z,9.443721
2022-10-17T06:09:09.506Z,9.443730
2022-10-17T06:10:09.458Z,9.443727
2022-10-17T06:11:10.536Z,9.443727
2022-10-17T06:12:09.489Z,9.443746
2022-10-17T06:13:09.446Z,9.443769
2022-10-17T06:14:09.433Z,9.443796
2022-10-17T06:15:09.444Z,9.443789
2022-10-17T06:16:09.424Z,9.443742
2022-10-17T06:17:14.817Z,9.443716
2022-10-17T06:18:11.409Z,9.443694
2022-10-17T06:19:09.454Z,9.443724
2022-10-17T06:20:09.440Z,9.443746
2022-10-17T06:21:09.386Z,9.443796
2022-10-17T06:22:09.537Z,9.443823
2022-10-17T06:23:09.373Z,9.443737
2022-10-17T06:24:09.372Z,9.443765
2022-10-17T06:25:09.388Z,9.443734
2022-10-17T06:26:09.347Z,9.443745
2022-10-17T06:27:11.793Z,9.443756
2022-10-17T06:28:10.352Z,9.443796
2022-10-17T06:29:10.519Z,9.443768
2022-10-17T06:30:09.332Z,9.443733
2022-10-17T06:31:09.329Z,9.443711
2022-10-17T06:32:12.599Z,9.443706
2022-10-17T06:33:10.310Z,9.443725
2022-10-17T06:34:09.308Z,9.443737
2022-10-17T06:35:09.304Z,9.443740
2022-10-17T06:36:09.276Z,9.443765
2022-10-17T06:37:09.308Z,9.443768
2022-10-17T06:38:09.280Z,9.443779
2022-10-17T06:39:09.251Z,9.443712
2022-10-17T06:40:09.251Z,9.443742
2022-10-17T06:41:09.247Z,9.443705
2022-10-17T06:42:09.238Z,9.443766
2022-10-17T06:43:09.250Z,9.443745
2022-10-17T06:44:09.259Z,9.443751
2022-10-17T06:45:09.238Z,9.443721
2022-10-17T06:46:09.200Z,9.443759
2022-10-17T06:47:09.230Z,9.443759
2022-10-17T06:48:10.025Z,9.443661
2022-10-17T06:49:10.207Z,9.443706
2022-10-17T06:50:09.180Z,9.443727
2022-10-17T06:51:09.177Z,9.443782
2022-10-17T06:52:09.193Z,9.443765
2022-10-17T06:53:09.189Z,9.443768
2022-10-17T06:54:09.171Z,9.443769
2022-10-17T06:55:09.163Z,9.443765
2022-10-17T06:56:09.139Z,9.443909
2022-10-17T06:57:09.214Z,9.443771
2022-10-17T06:58:09.136Z,9.443627
2022-10-17T06:59:09.207Z,9.443629
2022-10-17T07:00:09.117Z,9.443668
2022-10-17T07:02:10.117Z,9.443688
2022-10-17T07:03:09.149Z,9.443824
2022-10-17T07:04:09.100Z,9.443735
2022-10-17T07:05:09.255Z,9.443647
2022-10-17T07:06:09.068Z,9.443626
2022-10-17T07:07:09.064Z,9.443729
2022-10-17T07:08:10.111Z,9.443749
2022-10-17T07:09:09.072Z,9.443793
2022-10-17T07:10:09.083Z,9.443692
2022-10-17T07:11:09.103Z,9.443753
2022-10-17T07:12:09.060Z,9.443694
2022-10-17T07:13:09.041Z,9.443806
2022-10-17T07:14:09.036Z,9.443755
2022-10-17T07:15:09.067Z,9.443696
2022-10-17T07:16:09.047Z,9.443606
2022-10-17T07:17:09.020Z,9.443587
2022-10-17T07:18:09.035Z,9.443659
2022-10-17T07:19:10.024Z,9.443734
2022-10-17T07:20:09.010Z,9.443726
2022-10-17T07:21:09.063Z,9.443652
2022-10-17T07:22:08.987Z,9.443788
2022-10-17T07:23:08.983Z,9.443680
2022-10-17T07:24:08.994Z,9.443625
2022-10-17T07:25:08.975Z,9.443624
2022-10-17T07:26:09.011Z,9.443673
2022-10-17T07:27:08.967Z,9.443604
2022-10-17T07:28:09.002Z,9.443666
2022-10-17T07:29:08.978Z,9.443762
2022-10-17T07:30:08.945Z,9.443795
2022-10-17T07:31:09.034Z,9.443756
2022-10-17T07:32:08.990Z,9.443755
2022-10-17T07:33:08.913Z,9.443703
2022-10-17T07:34:08.928Z,9.443704
2022-10-17T07:35:08.921Z,9.443739
2022-10-17T07:36:08.909Z,9.443626
2022-10-17T07:37:09.018Z,9.443630
2022-10-17T07:38:08.933Z,9.443725
2022-10-17T07:39:08.881Z,9.443723
2022-10-17T07:40:08.905Z,9.443686
2022-10-17T07:41:08.917Z,9.443699
2022-10-17T07:42:08.873Z,9.443664
2022-10-17T07:43:08.874Z,9.443675
2022-10-17T07:44:08.886Z,9.443688
2022-10-17T07:45:08.868Z,9.443699
2022-10-17T07:46:08.868Z,9.443739
2022-10-17T07:47:08.956Z,9.443711
2022-10-17T07:48:08.843Z,9.443694
2022-10-17T07:49:08.842Z,9.443733
2022-10-17T07:50:08.835Z,9.443739
2022-10-17T07:51:08.873Z,9.443733
2022-10-17T07:52:08.824Z,9.443745
2022-10-17T07:53:08.812Z,9.443745
2022-10-17T07:54:08.827Z,9.443703
2022-10-17T07:55:08.846Z,9.443705
2022-10-17T07:56:08.792Z,9.443687
2022-10-17T07:57:08.852Z,9.443707
2022-10-17T07:58:08.778Z,9.443741
2022-10-17T07:59:09.540Z,9.443722
2022-10-17T08:00:08.767Z,9.443668
2022-10-17T08:01:12.209Z,9.443685
2022-10-17T08:02:09.779Z,9.443745
2022-10-17T08:03:08.756Z,9.443727
2022-10-17T08:04:08.747Z,9.443712
2022-10-17T08:05:08.739Z,9.443745
2022-10-17T08:06:08.736Z,9.443727
2022-10-17T08:07:21.001Z,9.443755
2022-10-17T08:08:10.743Z,9.443740
2022-10-17T08:09:08.738Z,9.443713
2022-10-17T08:11:08.715Z,9.443711
2022-10-17T08:12:08.715Z,9.443700
2022-10-17T08:13:08.741Z,9.443731
2022-10-17T08:14:08.679Z,9.443699
2022-10-17T08:15:08.714Z,9.443743
2022-10-17T08:16:08.679Z,9.443729
2022-10-17T08:17:08.736Z,9.443759
2022-10-17T08:18:08.686Z,9.443752
2022-10-17T08:20:08.662Z,9.443789
2022-10-17T08:21:08.715Z,9.443774
2022-10-17T08:22:08.658Z,9.443715
2022-10-17T08:23:08.658Z,9.443637
2022-10-17T08:24:08.710Z,9.443703
2022-10-17T08:25:08.647Z,9.443786
2022-10-17T08:26:08.618Z,9.443723
2022-10-17T08:27:08.636Z,9.443698
2022-10-17T08:28:08.647Z,9.443603
2022-10-17T08:29:08.675Z,9.443706
2022-10-17T08:30:08.610Z,9.443786
2022-10-17T08:31:08.605Z,9.443670
2022-10-17T08:32:09.864Z,9.443684
2022-10-17T08:33:08.587Z,9.443754
2022-10-17T08:34:08.634Z,9.443872
2022-10-17T08:35:08.590Z,9.443719
2022-10-17T08:36:08.590Z,9.443628
2022-10-17T08:37:08.564Z,9.443695
2022-10-17T08:38:11.021Z,9.443632
2022-10-17T08:39:08.591Z,9.443703
2022-10-17T08:40:08.598Z,9.443701
2022-10-17T08:41:08.543Z,9.443666
2022-10-17T08:42:08.510Z,9.443671
2022-10-17T08:43:08.541Z,9.443695
2022-10-17T08:44:08.501Z,9.443614
2022-10-17T08:45:08.518Z,9.443581
2022-10-17T08:46:08.503Z,9.443622
2022-10-17T08:47:08.482Z,9.443541
2022-10-17T08:48:08.477Z,9.443510
2022-10-17T08:49:12.089Z,9.443544
2022-10-17T08:50:09.486Z,9.443686
2022-10-17T08:51:08.465Z,9.443671
2022-10-17T08:52:08.450Z,9.443688
2022-10-17T08:53:08.471Z,9.443630
2022-10-17T08:54:08.476Z,9.443620
2022-10-17T08:55:08.483Z,9.443638
2022-10-17T08:56:11.947Z,9.443602
2022-10-17T08:57:10.972Z,9.443598
2022-10-17T08:58:08.432Z,9.443660
2022-10-17T08:59:08.399Z,9.443646
2022-10-17T09:00:08.416Z,9.443661
2022-10-17T09:01:12.921Z,9.443585
2022-10-17T09:02:09.391Z,9.443623
2022-10-17T09:03:08.479Z,9.443508
2022-10-17T09:04:08.387Z,9.443537
2022-10-17T09:05:08.464Z,9.443615
2022-10-17T09:06:08.392Z,9.443629
2022-10-17T09:07:08.360Z,9.443664
2022-10-17T09:08:08.453Z,9.443593
2022-10-17T09:09:08.350Z,9.443619
2022-10-17T09:10:08.355Z,9.443758
2022-10-17T09:11:08.360Z,9.443711
2022-10-17T09:12:08.364Z,9.443664
2022-10-17T09:13:08.415Z,9.443700
2022-10-17T09:14:08.323Z,9.443682
2022-10-17T09:15:08.346Z,9.443669
2022-10-17T09:16:08.336Z,9.443673
2022-10-17T09:17:08.310Z,9.443658
2022-10-17T09:18:08.327Z,9.443647
2022-10-17T09:19:08.299Z,9.443587
2022-10-17T09:20:08.276Z,9.443603
2022-10-17T09:21:08.341Z,9.443632
2022-10-17T09:22:08.275Z,9.443602
2022-10-17T09:23:08.266Z,9.443685
2022-10-17T09:24:15.433Z,9.443614
2022-10-17T09:25:11.246Z,9.443622
2022-10-17T09:26:08.258Z,9.443592
2022-10-17T09:27:08.255Z,9.443635
2022-10-17T09:28:08.284Z,9.443686
2022-10-17T09:29:08.332Z,9.443664
2022-10-17T09:30:13.044Z,9.443639
2022-10-17T09:31:34.200Z,9.443586
2022-10-17T09:32:08.202Z,9.443658
2022-10-17T09:33:08.204Z,9.443656
2022-10-17T09:34:08.198Z,9.443700
2022-10-17T09:35:08.194Z,9.443815
2022-10-17T09:36:08.181Z,9.443728
2022-10-17T09:37:08.190Z,9.443694
2022-10-17T09:38:08.191Z,9.443734
2022-10-17T09:39:08.170Z,9.443709
2022-10-17T09:40:08.174Z,9.443673
2022-10-17T09:41:25.676Z,9.443735
2022-10-17T09:42:10.158Z,9.443705
2022-10-17T09:43:08.200Z,9.443851
2022-10-17T09:44:08.134Z,9.443602
2022-10-17T09:45:08.142Z,9.443609
2022-10-17T09:46:08.114Z,9.443668
2022-10-17T09:47:08.162Z,9.443591
2022-10-17T09:48:08.127Z,9.443601
2022-10-17T09:49:08.924Z,9.443581
2022-10-17T09:50:08.104Z,9.443645
2022-10-17T09:51:22.024Z,9.443656
2022-10-17T09:52:10.093Z,9.443732
2022-10-17T09:53:08.095Z,9.443763
2022-10-17T09:54:08.126Z,9.443769
2022-10-17T09:55:08.071Z,9.443726
2022-10-17T09:56:08.066Z,9.443851
2022-10-17T09:57:08.062Z,9.443723
2022-10-17T09:58:08.050Z,9.443671
2022-10-17T09:59:12.909Z,9.443810
2022-10-17T10:00:10.075Z,9.443804
2022-10-17T10:01:08.109Z,9.443825
2022-10-17T10:02:08.034Z,9.443783
2022-10-17T10:03:09.037Z,9.443806
2022-10-17T10:04:08.034Z,9.443835
2022-10-17T10:05:08.026Z,9.443701
2022-10-17T10:06:07.998Z,9.443515
2022-10-17T10:07:07.991Z,9.443457
2022-10-17T10:08:08.031Z,9.443364
2022-10-17T10:09:07.990Z,9.443326
2022-10-17T10:10:07.982Z,9.443367
2022-10-17T10:11:11.838Z,9.443541
2022-10-17T10:12:08.978Z,9.443673
2022-10-17T10:13:07.977Z,9.443571
2022-10-17T10:14:07.966Z,9.443620
2022-10-17T10:15:07.999Z,9.443628
2022-10-17T10:16:07.957Z,9.443755
2022-10-17T10:17:07.945Z,9.443563
2022-10-17T10:18:07.945Z,9.443172
2022-10-17T10:19:09.143Z,9.443328
2022-10-17T10:20:07.963Z,9.443822
2022-10-17T10:21:07.953Z,9.443708
2022-10-17T10:22:07.924Z,9.443697
2022-10-17T10:23:07.926Z,9.443599
2022-10-17T10:24:07.933Z,9.443716
2022-10-17T10:25:07.913Z,9.443884
2022-10-17T10:26:07.917Z,9.443953
2022-10-17T10:27:07.921Z,9.444053
2022-10-17T10:28:07.895Z,9.444032
2022-10-17T10:29:07.982Z,9.443844
2022-10-17T10:30:07.886Z,9.443760
2022-10-17T10:31:07.889Z,9.443761
2022-10-17T10:32:07.877Z,9.443794
2022-10-17T10:33:07.873Z,9.443804
2022-10-17T10:34:07.877Z,9.443750
2022-10-17T10:35:07.868Z,9.443745
2022-10-17T10:36:07.859Z,9.443689
2022-10-17T10:37:07.870Z,9.443709
2022-10-17T10:38:07.849Z,9.443688
2022-10-17T10:39:07.866Z,9.443681
2022-10-17T10:40:07.855Z,9.443717
2022-10-17T10:41:07.836Z,9.443736
2022-10-17T10:42:07.828Z,9.443711
2022-10-17T10:43:07.841Z,9.443757
2022-10-17T10:44:07.821Z,9.443707
2022-10-17T10:45:11.979Z,9.443773
2022-10-17T10:46:08.833Z,9.443704
2022-10-17T10:47:07.796Z,9.443727
2022-10-17T10:48:07.829Z,9.443660
2022-10-17T10:49:07.804Z,9.443672
2022-10-17T10:50:07.795Z,9.443727
2022-10-17T10:51:07.796Z,9.443665
2022-10-17T10:52:07.796Z,9.443792
2022-10-17T10:53:07.767Z,9.443650
2022-10-17T10:54:08.768Z,9.443711
2022-10-17T10:55:07.743Z,9.443666
2022-10-17T10:56:07.747Z,9.443674
2022-10-17T10:57:07.751Z,9.443692
2022-10-17T10:58:07.752Z,9.443815
2022-10-17T10:59:07.728Z,9.443756
2022-10-17T11:00:07.723Z,9.443685
2022-10-17T11:01:07.831Z,9.443665
2022-10-17T11:02:07.758Z,9.443629
2022-10-17T11:03:11.847Z,9.443862
2022-10-17T11:04:09.705Z,9.443752
2022-10-17T11:05:07.692Z,9.443785
2022-10-17T11:06:07.702Z,9.443753
2022-10-17T11:07:08.697Z,9.443736
2022-10-17T11:08:07.663Z,9.443728
2022-10-17T11:09:07.656Z,9.443760
2022-10-17T11:10:07.645Z,9.443842
2022-10-17T11:11:07.645Z,9.443865
2022-10-17T11:12:07.651Z,9.443801
2022-10-17T11:13:07.648Z,9.443691
2022-10-17T11:14:09.644Z,9.443650
2022-10-17T11:15:08.615Z,9.443708
2022-10-17T11:16:07.621Z,9.443694
2022-10-17T11:17:07.611Z,9.443724
2022-10-17T11:18:07.615Z,9.443617
2022-10-17T11:19:07.624Z,9.443597
2022-10-17T11:20:07.608Z,9.443770
2022-10-17T11:21:08.106Z,9.443695
2022-10-17T11:22:07.606Z,9.443736
2022-10-17T11:23:07.602Z,9.443730
2022-10-17T11:24:09.048Z,9.443691
2022-10-17T11:25:07.582Z,9.443634
2022-10-17T11:26:07.577Z,9.443659
2022-10-17T11:27:07.560Z,9.443778
2022-10-17T11:28:07.564Z,9.443707
2022-10-17T11:29:07.646Z,9.443828
2022-10-17T11:30:07.555Z,9.443774
2022-10-17T11:31:08.126Z,9.443651
2022-10-17T11:32:07.525Z,9.443516
2022-10-17T11:33:07.647Z,9.443669
2022-10-17T11:34:07.532Z,9.443661
2022-10-17T11:35:07.547Z,9.443543
2022-10-17T11:36:07.511Z,9.443462
2022-10-17T11:37:07.503Z,9.443548
2022-10-17T11:38:07.507Z,9.443633
2022-10-17T11:39:07.499Z,9.443712
2022-10-17T11:40:07.483Z,9.443692
2022-10-17T11:41:07.483Z,9.443686
2022-10-17T11:42:07.483Z,9.443746
2022-10-17T11:43:07.482Z,9.443773
2022-10-17T11:44:07.531Z,9.443410
2022-10-17T11:45:07.476Z,9.443558
2022-10-17T11:46:07.450Z,9.443642
2022-10-17T11:47:07.445Z,9.443455
2022-10-17T11:48:07.434Z,9.443597
2022-10-17T11:49:07.535Z,9.443600